createdAt,value
2022-10-01T00:02:00.177Z,95103.80
2022-10-01T00:04:27.201Z,95106.55
2022-10-01T00:06:53.395Z,95116.44
2022-10-01T00:09:19.863Z,95122.27
2022-10-01T00:11:45.911Z,95126.02
2022-10-01T00:14:12.007Z,95139.27
2022-10-01T00:16:38.264Z,95135.13
2022-10-01T00:19:04.469Z,95138.13
2022-10-01T00:21:32.368Z,95140.29
2022-10-01T00:24:04.319Z,95132.55
2022-10-01T00:26:35.398Z,95120.64
2022-10-01T00:29:04.496Z,95106.02
2022-10-01T00:31:31.498Z,95114.29
2022-10-01T00:33:59.915Z,95119.63
2022-10-01T00:36:26.887Z,95113.92
2022-10-01T00:38:53.745Z,95129.70
2022-10-01T00:41:19.848Z,95143.69
2022-10-01T00:43:49.478Z,95161.16
2022-10-01T00:46:21.865Z,95158.91
2022-10-01T00:49:02.212Z,95161.14
2022-10-01T00:51:32.340Z,95166.25
2022-10-01T00:54:08.163Z,95177.93
2022-10-01T00:56:34.258Z,95166.73
2022-10-01T00:59:01.809Z,95166.55
2022-10-01T01:01:28.163Z,95163.83
2022-10-01T01:03:54.811Z,95157.29
2022-10-01T01:06:20.897Z,95148.02
2022-10-01T01:08:53.021Z,95132.37
2022-10-01T01:11:37.851Z,95133.14
2022-10-01T01:14:45.737Z,95144.45
2022-10-01T01:17:19.184Z,95143.43
2022-10-01T01:20:13.481Z,95139.08
2022-10-01T01:22:49.878Z,95135.92
2022-10-01T01:25:28.710Z,95142.52
2022-10-01T01:28:12.964Z,95149.83
2022-10-01T01:30:41.314Z,95144.11
2022-10-01T01:33:15.372Z,95136.83
2022-10-01T01:35:47.670Z,95132.89
2022-10-01T01:38:18.776Z,95132.95
2022-10-01T02:38:37.264Z,95111.61
2022-10-01T02:41:07.319Z,95117.86
2022-10-01T02:43:59.678Z,95120.11
2022-10-01T02:46:34.784Z,95118.56
2022-10-01T02:49:02.484Z,95135.45
2022-10-01T02:51:37.502Z,95136.34
2022-10-01T02:54:26.448Z,95130.96
2022-10-01T02:57:11.649Z,95130.63
2022-10-01T02:59:37.715Z,95126.16
2022-10-01T03:02:04.034Z,95139.54
2022-10-01T03:04:30.501Z,95155.59
2022-10-01T03:07:03.096Z,95164.98
2022-10-01T03:09:34.639Z,95168.34
2022-10-01T03:12:01.330Z,95169.88
2022-10-01T03:14:27.649Z,95174.90
2022-10-01T03:16:53.882Z,95172.50
2022-10-01T03:19:20.598Z,95174.29
2022-10-01T03:21:47.304Z,95184.02
2022-10-01T03:24:13.563Z,95189.30
2022-10-01T03:26:40.639Z,95193.82
2022-10-01T03:29:06.704Z,95192.43
2022-10-01T03:31:33.107Z,95192.86
2022-10-01T03:34:00.362Z,95183.18
2022-10-01T03:36:27.613Z,95172.52
2022-10-01T03:38:53.664Z,95166.04
2022-10-01T03:41:19.825Z,95152.83
2022-10-01T03:43:45.907Z,95149.84
2022-10-01T03:46:11.983Z,95143.17
2022-10-01T04:00:14.021Z,95174.69
2022-10-01T04:02:40.190Z,95179.14
2022-10-01T04:09:11.812Z,95172.70
2022-10-01T04:11:40.784Z,95168.19
2022-10-01T04:14:06.776Z,95173.30
2022-10-01T04:16:35.659Z,95168.25
2022-10-01T04:19:03.352Z,95166.48
2022-10-01T04:21:29.413Z,95166.03
2022-10-01T04:23:55.860Z,95160.45
2022-10-01T04:26:21.901Z,95152.61
2022-10-01T04:28:47.961Z,95148.40
2022-10-01T04:31:26.904Z,95151.46
2022-10-01T05:16:55.693Z,95183.90
2022-10-01T05:23:21.410Z,95173.89
2022-10-01T05:29:23.884Z,95191.30
2022-10-01T05:31:50.093Z,95195.30
2022-10-01T05:34:16.195Z,95208.59
2022-10-01T05:36:42.283Z,95223.03
2022-10-01T05:39:08.833Z,95231.86
2022-10-01T05:41:35.031Z,95234.58
2022-10-01T05:44:02.552Z,95244.42
2022-10-01T05:46:28.647Z,95249.00
2022-10-01T05:48:54.662Z,95246.33
2022-10-01T05:51:20.907Z,95238.02
2022-10-01T05:53:50.549Z,95243.55
2022-10-01T05:56:16.792Z,95240.79
2022-10-01T05:58:43.001Z,95238.70
2022-10-01T06:01:09.091Z,95237.31
2022-10-01T06:03:35.719Z,95241.81
2022-10-01T06:06:01.807Z,95227.98
2022-10-01T06:08:28.123Z,95216.80
2022-10-01T06:10:58.708Z,95207.81
2022-10-01T06:13:26.487Z,95207.22
2022-10-01T06:15:52.913Z,95201.27
2022-10-01T06:18:19.051Z,95201.48
2022-10-01T06:40:31.201Z,95224.48
2022-10-01T06:42:58.217Z,95218.33
2022-10-01T06:45:29.939Z,95209.18
2022-10-01T06:47:58.151Z,95190.66
2022-10-01T06:50:24.801Z,95181.25
2022-10-01T06:52:51.695Z,95186.61
2022-10-01T06:55:25.409Z,95187.13
2022-10-01T07:10:18.584Z,95195.64
2022-10-01T07:12:45.728Z,95198.58
2022-10-01T07:15:22.327Z,95208.20
2022-10-01T07:18:16.292Z,95209.67
2022-10-01T07:32:16.389Z,95245.29
2022-10-01T07:34:44.172Z,95252.92
2022-10-01T07:37:59.692Z,95256.31
2022-10-01T07:40:26.808Z,95283.67
2022-10-01T07:42:55.291Z,95285.45
2022-10-01T07:45:25.732Z,95287.93
2022-10-01T07:47:59.977Z,95277.25
2022-10-01T07:50:29.268Z,95276.92
2022-10-01T07:52:57.669Z,95285.79
2022-10-01T07:55:26.905Z,95288.59
2022-10-01T07:57:54.682Z,95291.55
2022-10-01T08:00:22.686Z,95286.95
2022-10-01T08:02:50.259Z,95283.06
2022-10-01T08:05:18.659Z,95286.53
2022-10-01T08:07:46.223Z,95293.60
2022-10-01T08:10:12.875Z,95293.41
2022-10-01T08:12:39.610Z,95299.29
2022-10-01T08:15:14.725Z,95292.30
2022-10-01T08:17:41.833Z,95285.84
2022-10-01T08:20:10.511Z,95281.08
2022-10-01T08:22:41.089Z,95270.98
2022-10-01T08:36:41.468Z,95236.78
2022-10-01T08:39:07.686Z,95231.64
2022-10-01T08:42:29.765Z,95217.84
2022-10-01T08:48:44.578Z,95205.70
2022-10-01T08:51:38.909Z,95217.85
2022-10-01T08:54:28.556Z,95241.41
2022-10-01T08:57:02.085Z,95241.16
2022-10-01T08:59:46.722Z,95239.95
2022-10-01T09:02:26.284Z,95225.48
2022-10-01T09:09:08.411Z,95218.52
2022-10-01T09:12:00.682Z,95241.60
2022-10-01T09:14:32.771Z,95243.59
2022-10-01T09:17:21.576Z,95237.21
2022-10-01T09:20:10.643Z,95230.67
2022-10-01T09:22:47.026Z,95208.02
2022-10-01T09:25:21.881Z,95217.21
2022-10-01T09:27:49.334Z,95239.77
2022-10-01T09:30:20.060Z,95252.00
2022-10-01T09:32:57.065Z,95247.55
2022-10-01T09:35:43.842Z,95233.15
2022-10-01T09:38:22.860Z,95226.05
2022-10-01T09:40:55.573Z,95223.21
2022-10-01T09:43:33.669Z,95222.63
2022-10-01T09:46:00.257Z,95218.50
2022-10-01T09:48:29.015Z,95217.55
2022-10-01T09:51:01.573Z,95212.27
2022-10-01T09:53:40.739Z,95203.46
2022-10-01T09:56:28.967Z,95196.41
2022-10-01T09:58:59.905Z,95177.43
2022-10-01T10:01:43.171Z,95162.02
2022-10-01T10:04:10.438Z,95150.42
2022-10-01T10:06:38.199Z,95159.38
2022-10-01T10:09:04.805Z,95154.94
2022-10-01T10:11:32.677Z,95154.63
2022-10-01T10:14:02.979Z,95136.59
2022-10-01T10:16:36.705Z,95132.14
2022-10-01T10:19:14.703Z,95125.54
2022-10-01T10:21:51.511Z,95129.52
2022-10-01T10:24:36.314Z,95119.84
2022-10-01T10:27:05.989Z,95120.31
2022-10-01T10:29:34.633Z,95108.80
2022-10-01T10:32:26.940Z,95106.80
2022-10-01T10:35:02.714Z,95112.54
2022-10-01T10:37:34.042Z,95114.58
2022-10-01T10:40:00.465Z,95107.14
2022-10-01T10:42:27.095Z,95087.50
2022-10-01T10:44:56.390Z,95068.16
2022-10-01T10:47:23.834Z,95040.13
2022-10-01T10:49:55.597Z,95007.96
2022-10-01T10:52:35.690Z,94993.00
2022-10-01T10:55:18.507Z,94965.14
2022-10-01T10:57:46.716Z,94953.16
2022-10-01T11:00:18.139Z,94980.79
2022-10-01T11:03:46.793Z,95004.55
2022-10-01T11:09:29.504Z,95020.20
2022-10-01T11:12:36.111Z,95028.92
2022-10-01T11:19:32.362Z,95001.65
2022-10-01T11:22:25.600Z,94993.21
2022-10-01T11:25:32.202Z,94972.93
2022-10-01T11:28:19.859Z,94993.10
2022-10-01T11:30:54.917Z,95008.27
2022-10-01T11:34:00.454Z,95031.38
2022-10-01T11:37:12.785Z,95041.74
2022-10-01T11:39:43.174Z,95041.85
2022-10-01T11:42:16.399Z,95028.11
2022-10-01T11:44:48.905Z,95017.06
2022-10-01T11:47:23.766Z,95001.07
2022-10-01T11:50:03.951Z,94999.88
2022-10-01T11:53:09.012Z,95010.87
2022-10-01T11:56:03.169Z,95009.35
2022-10-01T11:58:52.455Z,95003.32
2022-10-01T12:01:35.560Z,94998.02
2022-10-01T12:04:22.352Z,95005.92
2022-10-01T12:07:05.382Z,95034.91
2022-10-01T12:09:55.440Z,95067.54
2022-10-01T12:12:31.451Z,95071.52
2022-10-01T12:15:18.428Z,95077.38
2022-10-01T12:18:10.673Z,95068.70
2022-10-01T12:20:43.944Z,95059.14
2022-10-01T12:23:25.968Z,95041.90
2022-10-01T12:25:58.021Z,95007.06
2022-10-01T12:28:30.760Z,94991.09
2022-10-01T12:31:07.972Z,94980.84
2022-10-01T12:33:51.277Z,94943.77
2022-10-01T12:36:38.246Z,94838.98
2022-10-01T12:39:13.607Z,94838.96
2022-10-01T12:42:14.425Z,94900.88
2022-10-01T12:45:43.352Z,94940.24
2022-10-01T12:48:21.601Z,94934.66
2022-10-01T12:51:41.272Z,94938.85
2022-10-01T12:54:45.570Z,94958.65
2022-10-01T12:57:14.267Z,94963.09
2022-10-01T12:59:49.098Z,94956.77
2022-10-01T13:02:27.425Z,94938.21
2022-10-01T13:20:06.867Z,94950.05
2022-10-01T13:22:55.066Z,94937.26
2022-10-01T13:25:26.915Z,94930.42
2022-10-01T13:28:32.208Z,94946.00
2022-10-01T13:31:02.151Z,94947.63
2022-10-01T13:33:40.290Z,94933.50
2022-10-01T13:36:14.706Z,94931.06
2022-10-01T13:38:51.529Z,94918.22
2022-10-01T13:49:24.917Z,94883.69
2022-10-01T13:52:20.499Z,94859.88
2022-10-01T13:55:00.822Z,94872.95
2022-10-01T13:57:34.518Z,94858.21
2022-10-01T14:00:19.771Z,94851.36
2022-10-01T14:03:06.270Z,94845.73
2022-10-01T14:05:35.225Z,94843.57
2022-10-01T14:08:14.168Z,94845.48
2022-10-01T14:11:16.227Z,94840.41
2022-10-01T14:14:25.669Z,94833.36
2022-10-01T14:16:56.181Z,94828.40
2022-10-01T14:19:26.764Z,94828.38
2022-10-01T14:22:03.447Z,94827.18
2022-10-01T14:24:40.953Z,94810.94
2022-10-01T14:27:26.318Z,94798.25
2022-10-01T14:30:06.354Z,94800.05
2022-10-01T14:32:57.054Z,94798.14
2022-10-01T14:35:40.637Z,94798.42
2022-10-01T14:38:33.897Z,94792.80
2022-10-01T14:41:01.461Z,94785.98
2022-10-01T14:43:32.406Z,94762.48
2022-10-01T14:46:00.369Z,94745.88
2022-10-01T14:48:39.878Z,94742.02
2022-10-01T14:51:22.697Z,94748.71
2022-10-01T14:53:51.994Z,94756.34
2022-10-01T14:56:19.310Z,94763.50
2022-10-01T15:02:32.418Z,94745.15
2022-10-01T16:30:57.062Z,94645.92
2022-10-01T16:37:47.852Z,94641.86
2022-10-01T16:44:13.528Z,94668.73
2022-10-01T16:47:27.140Z,94670.17
2022-10-01T17:01:27.424Z,94587.20
2022-10-01T17:03:53.502Z,94599.80
2022-10-01T17:06:19.611Z,94622.60
2022-10-01T17:09:39.045Z,94639.63
2022-10-01T17:12:05.212Z,94651.86
2022-10-01T17:14:31.242Z,94644.98
2022-10-01T17:16:57.835Z,94676.63
2022-10-01T17:19:24.429Z,94669.05
2022-10-01T17:21:50.673Z,94653.25
2022-10-01T17:24:17.522Z,94653.56
2022-10-01T17:26:44.988Z,94646.77
2022-10-01T17:29:11.552Z,94632.91
2022-10-01T17:31:40.446Z,94640.96
2022-10-01T17:34:06.809Z,94619.95
2022-10-01T17:36:34.831Z,94605.63
2022-10-01T17:39:01.531Z,94601.34
2022-10-01T17:41:27.593Z,94609.97
2022-10-01T17:43:53.834Z,94615.54
2022-10-01T17:46:20.153Z,94631.69
2022-10-01T17:48:50.312Z,94624.30
2022-10-01T17:51:17.090Z,94613.66
2022-10-01T17:53:43.630Z,94610.20
2022-10-01T17:56:14.037Z,94615.86
2022-10-01T17:58:44.817Z,94626.09
2022-10-01T18:01:22.229Z,94628.81
2022-10-01T18:03:55.449Z,94628.66
2022-10-01T18:06:22.969Z,94628.98
2022-10-01T18:08:55.446Z,94633.77
2022-10-01T18:11:23.723Z,94632.58
2022-10-01T18:13:50.641Z,94638.81
2022-10-01T18:16:19.291Z,94640.63
2022-10-01T18:19:51.846Z,94635.91
2022-10-01T18:21:32.311Z,94630.36
2022-10-01T18:24:01.939Z,94633.98
2022-10-01T18:26:30.443Z,94640.13
2022-10-01T18:28:56.486Z,94643.04
2022-10-01T18:31:28.237Z,94654.33
2022-10-01T18:33:57.182Z,94661.92
2022-10-01T18:36:32.980Z,94672.59
2022-10-01T18:39:10.096Z,94678.11
2022-10-01T18:41:38.681Z,94690.48
2022-10-01T18:44:11.672Z,94695.58
2022-10-01T18:46:44.751Z,94691.85
2022-10-01T18:49:20.775Z,94670.39
2022-10-01T18:52:31.638Z,94650.73
2022-10-01T18:55:24.739Z,94647.31
2022-10-01T18:58:18.824Z,94646.89
2022-10-01T19:00:44.888Z,94659.05
2022-10-01T19:03:27.315Z,94662.67
2022-10-01T19:06:15.335Z,94671.14
2022-10-01T19:09:22.954Z,94669.14
2022-10-01T19:11:57.795Z,94665.34
2022-10-01T19:14:41.605Z,94675.05
2022-10-01T19:17:07.608Z,94684.55
2022-10-01T19:19:54.631Z,94685.48
2022-10-01T19:22:39.263Z,94681.42
2022-10-01T19:25:25.373Z,94677.75
2022-10-01T19:27:58.631Z,94675.38
2022-10-01T19:30:28.058Z,94682.21
2022-10-01T19:33:08.987Z,94681.13
2022-10-01T19:35:37.709Z,94678.83
2022-10-01T19:38:06.227Z,94668.23
2022-10-01T19:40:50.730Z,94659.64
2022-10-01T19:43:42.692Z,94644.77
2022-10-01T19:46:26.115Z,94634.36
2022-10-01T19:49:13.672Z,94629.22
2022-10-01T19:51:46.114Z,94618.24
2022-10-01T20:02:22.400Z,94610.05
2022-10-01T20:24:32.347Z,94634.94
2022-10-01T20:27:11.931Z,94641.95
2022-10-01T20:29:47.085Z,94647.63
2022-10-01T20:32:46.850Z,94658.80
2022-10-01T20:35:32.119Z,94676.31
2022-10-01T20:38:08.593Z,94678.70
2022-10-01T20:41:00.615Z,94675.58
2022-10-01T20:43:35.754Z,94671.46
2022-10-01T20:46:27.150Z,94677.04
2022-10-01T20:49:01.020Z,94674.21
2022-10-01T20:52:31.225Z,94659.48
2022-10-01T20:55:09.377Z,94649.25
2022-10-01T20:57:50.258Z,94659.98
2022-10-01T21:00:21.247Z,94678.65
2022-10-01T21:02:54.321Z,94687.00
2022-10-01T21:05:26.156Z,94688.92
2022-10-01T21:08:10.128Z,94692.83
2022-10-01T21:10:44.468Z,94696.77
2022-10-01T21:13:19.393Z,94703.61
2022-10-01T21:16:00.734Z,94704.83
2022-10-01T21:18:57.628Z,94712.54
2022-10-01T21:21:55.143Z,94718.15
2022-10-01T21:24:39.971Z,94725.27
2022-10-01T21:27:18.173Z,94724.14
2022-10-01T21:33:51.734Z,94727.52
2022-10-01T21:36:37.838Z,94730.55
2022-10-01T21:39:09.577Z,94735.06
2022-10-01T21:42:11.429Z,94736.23
2022-10-01T21:45:14.626Z,94738.61
2022-10-01T21:48:15.760Z,94734.16
2022-10-01T21:50:55.992Z,94734.52
2022-10-01T21:54:09.866Z,94736.66
2022-10-01T21:56:44.609Z,94737.50
2022-10-01T21:59:39.327Z,94731.54
2022-10-01T22:02:17.786Z,94729.08
2022-10-01T22:04:52.190Z,94734.01
2022-10-01T22:07:40.971Z,94735.16
2022-10-01T22:10:16.391Z,94738.73
2022-10-01T22:12:47.050Z,94733.21
2022-10-01T22:15:42.911Z,94730.48
2022-10-01T22:18:31.649Z,94729.23
2022-10-01T22:21:01.042Z,94724.89
2022-10-01T22:23:31.681Z,94727.40
2022-10-01T22:26:05.785Z,94725.21
2022-10-01T22:28:38.762Z,94720.16
2022-10-01T22:34:23.525Z,94717.55
2022-10-01T22:37:01.778Z,94714.73
2022-10-01T22:39:36.984Z,94711.81
2022-10-01T22:42:33.642Z,94715.50
2022-10-01T22:45:08.789Z,94712.54
2022-10-01T22:47:54.992Z,94711.96
2022-10-01T22:50:45.726Z,94711.53
2022-10-01T22:53:20.957Z,94707.30
2022-10-01T22:55:55.509Z,94704.98
2022-10-01T22:58:59.278Z,94701.23
2022-10-01T23:01:37.335Z,94691.58
2022-10-01T23:04:35.455Z,94691.38
2022-10-01T23:07:17.393Z,94686.55
2022-10-01T23:10:07.790Z,94682.88
2022-10-01T23:12:55.832Z,94685.25
2022-10-01T23:15:24.805Z,94687.50
2022-10-01T23:29:43.628Z,94698.08
2022-10-01T23:32:27.883Z,94710.97
2022-10-01T23:35:12.548Z,94717.90
2022-10-01T23:38:00.178Z,94722.11
2022-10-01T23:40:31.498Z,94727.85
2022-10-01T23:43:25.351Z,94731.33
2022-10-01T23:46:01.502Z,94738.54
2022-10-01T23:48:37.692Z,94744.80
2022-10-01T23:51:24.234Z,94747.05
2022-10-01T23:54:12.132Z,94750.85
2022-10-01T23:56:49.471Z,94754.48
2022-10-01T23:59:40.798Z,94763.21
